createdAt,value
2017-12-29T00:00:47.479Z,60.50
2017-12-29T00:01:52.255Z,60.70
2017-12-29T00:02:57.293Z,60.60
2017-12-29T00:04:02.237Z,60.70
2017-12-29T00:05:07.213Z,60.90
2017-12-29T00:06:11.971Z,60.70
2017-12-29T00:07:16.813Z,60.80
2017-12-29T00:08:21.632Z,60.70
2017-12-29T00:09:26.576Z,60.80
2017-12-29T00:10:31.769Z,60.70
2017-12-29T00:11:36.744Z,60.70
2017-12-29T00:12:41.685Z,60.70
2017-12-29T00:13:46.607Z,60.80
2017-12-29T00:14:51.570Z,60.80
2017-12-29T00:15:56.485Z,60.80
2017-12-29T00:17:01.296Z,60.90
2017-12-29T00:18:06.196Z,60.90
2017-12-29T00:19:11.273Z,60.80
2017-12-29T00:20:16.123Z,60.80
2017-12-29T00:21:20.871Z,60.80
2017-12-29T00:22:25.772Z,60.90
2017-12-29T00:23:30.678Z,60.90
2017-12-29T00:24:35.625Z,60.90
2017-12-29T00:25:40.340Z,60.90
2017-12-29T00:26:45.172Z,60.90
2017-12-29T00:27:49.854Z,60.80
2017-12-29T00:28:55.004Z,60.80
2017-12-29T00:29:59.878Z,60.80
2017-12-29T00:31:04.801Z,60.90
2017-12-29T00:32:09.681Z,60.90
2017-12-29T00:33:14.522Z,60.90
2017-12-29T00:34:19.363Z,60.90
2017-12-29T00:35:24.237Z,60.90
2017-12-29T00:36:28.954Z,60.90
2017-12-29T00:37:33.788Z,60.80
2017-12-29T00:38:38.640Z,60.80
2017-12-29T00:39:43.515Z,60.80
2017-12-29T00:40:48.362Z,60.80
2017-12-29T00:41:53.232Z,60.80
2017-12-29T00:42:58.028Z,60.80
2017-12-29T00:44:02.943Z,60.80
2017-12-29T00:45:07.669Z,60.80
2017-12-29T00:46:12.380Z,60.80
2017-12-29T00:47:17.128Z,60.80
2017-12-29T00:48:21.836Z,60.90
2017-12-29T00:49:26.716Z,60.90
2017-12-29T00:50:31.627Z,60.80
2017-12-29T00:51:36.446Z,60.90
2017-12-29T00:52:41.223Z,60.90
2017-12-29T00:53:45.967Z,61.00
2017-12-29T00:54:50.766Z,61.00
2017-12-29T00:55:55.485Z,61.10
2017-12-29T00:57:00.309Z,61.20
2017-12-29T00:58:05.115Z,61.20
2017-12-29T00:59:09.894Z,61.20
2017-12-29T01:00:14.840Z,61.20
2017-12-29T01:01:19.724Z,61.20
2017-12-29T01:02:24.610Z,61.30
2017-12-29T01:03:29.441Z,61.30
2017-12-29T01:04:34.293Z,61.30
2017-12-29T01:05:39.064Z,61.40
2017-12-29T01:06:43.887Z,61.40
2017-12-29T01:07:48.613Z,61.40
2017-12-29T01:08:53.366Z,61.40
2017-12-29T01:09:58.358Z,61.40
2017-12-29T01:11:03.197Z,61.40
2017-12-29T01:12:08.008Z,61.50
2017-12-29T01:13:12.809Z,61.60
2017-12-29T01:14:17.677Z,61.60
2017-12-29T01:15:22.526Z,61.60
2017-12-29T01:16:27.214Z,61.60
2017-12-29T01:17:31.913Z,61.60
2017-12-29T01:18:36.699Z,61.60
2017-12-29T01:19:41.450Z,61.60
2017-12-29T01:20:46.288Z,61.70
2017-12-29T01:21:51.166Z,61.70
2017-12-29T01:22:55.851Z,61.70
2017-12-29T01:24:00.553Z,61.70
2017-12-29T01:25:06.037Z,61.70
2017-12-29T01:26:10.865Z,61.60
2017-12-29T01:27:15.701Z,61.60
2017-12-29T01:28:20.482Z,61.60
2017-12-29T01:29:25.332Z,61.60
2017-12-29T01:30:30.219Z,61.60
2017-12-29T01:31:34.939Z,61.50
2017-12-29T01:32:39.876Z,61.60
2017-12-29T01:33:44.813Z,61.60
2017-12-29T01:34:49.635Z,61.60
2017-12-29T01:35:54.455Z,61.60
2017-12-29T01:36:59.226Z,61.60
2017-12-29T01:38:03.980Z,61.60
2017-12-29T01:39:08.730Z,62.40
2017-12-29T01:40:13.529Z,61.60
2017-12-29T01:41:18.447Z,61.60
2017-12-29T01:42:23.285Z,61.60
2017-12-29T01:43:28.196Z,61.60
2017-12-29T01:44:33.023Z,61.70
2017-12-29T01:45:37.805Z,61.70
2017-12-29T01:46:42.663Z,61.70
2017-12-29T01:47:47.350Z,61.80
2017-12-29T01:48:52.210Z,61.70
2017-12-29T01:49:57.032Z,61.70
2017-12-29T01:51:01.809Z,61.70
2017-12-29T01:52:06.785Z,61.80
2017-12-29T01:53:11.681Z,61.80
2017-12-29T01:54:16.516Z,61.80
2017-12-29T01:55:21.260Z,61.80
2017-12-29T01:56:26.005Z,61.90
2017-12-29T01:57:30.787Z,61.90
2017-12-29T01:58:35.470Z,61.90
2017-12-29T01:59:40.205Z,61.90
2017-12-29T02:00:45.047Z,61.90
2017-12-29T02:01:49.828Z,61.90
2017-12-29T02:02:54.660Z,61.90
2017-12-29T02:03:59.513Z,62.00
2017-12-29T02:05:04.371Z,61.90
2017-12-29T02:06:09.166Z,61.90
2017-12-29T02:07:13.913Z,61.90
2017-12-29T02:08:18.659Z,61.90
2017-12-29T02:09:23.420Z,62.50
2017-12-29T02:10:28.255Z,61.90
2017-12-29T02:11:32.988Z,62.00
2017-12-29T02:12:37.704Z,61.80
2017-12-29T02:13:42.607Z,61.90
2017-12-29T02:14:47.535Z,61.80
2017-12-29T02:15:52.386Z,61.80
2017-12-29T02:16:57.131Z,61.90
2017-12-29T02:18:01.932Z,61.90
2017-12-29T02:19:06.845Z,61.90
2017-12-29T02:20:11.631Z,61.80
2017-12-29T02:21:16.442Z,61.80
2017-12-29T02:22:21.125Z,61.90
2017-12-29T02:23:25.927Z,61.80
2017-12-29T02:24:30.762Z,61.80
2017-12-29T02:25:35.609Z,61.90
2017-12-29T02:26:40.287Z,62.00
2017-12-29T02:27:45.113Z,62.00
2017-12-29T02:28:49.876Z,61.90
2017-12-29T02:29:54.510Z,62.00
2017-12-29T02:30:59.213Z,62.00
2017-12-29T02:32:03.918Z,62.00
2017-12-29T02:33:08.661Z,62.00
2017-12-29T02:34:13.532Z,62.00
2017-12-29T02:35:18.333Z,62.00
2017-12-29T02:36:23.245Z,62.00
2017-12-29T02:37:28.109Z,61.90
2017-12-29T02:38:32.914Z,62.00
2017-12-29T02:39:37.750Z,62.00
2017-12-29T02:40:42.550Z,61.90
2017-12-29T02:41:47.429Z,61.90
2017-12-29T02:42:52.214Z,61.90
2017-12-29T02:43:56.937Z,61.90
2017-12-29T02:45:01.718Z,61.90
2017-12-29T02:46:06.607Z,61.90
2017-12-29T02:47:11.394Z,61.90
2017-12-29T02:48:16.276Z,61.90
2017-12-29T02:49:21.151Z,61.90
2017-12-29T02:50:26.006Z,61.90
2017-12-29T02:51:30.895Z,61.90
2017-12-29T02:52:35.774Z,61.90
2017-12-29T02:53:40.551Z,62.00
2017-12-29T02:54:45.280Z,62.00
2017-12-29T02:55:50.056Z,62.00
2017-12-29T02:56:54.998Z,62.00
2017-12-29T02:57:59.743Z,62.60
2017-12-29T02:59:04.529Z,62.00
2017-12-29T03:00:09.369Z,62.00
2017-12-29T03:01:14.159Z,62.00
2017-12-29T03:02:19.081Z,62.00
2017-12-29T03:03:23.794Z,62.00
2017-12-29T03:04:28.677Z,62.00
2017-12-29T03:05:33.465Z,62.00
2017-12-29T03:06:38.416Z,62.00
2017-12-29T03:07:43.236Z,62.10
2017-12-29T03:08:48.125Z,62.00
2017-12-29T03:09:52.939Z,62.10
2017-12-29T03:10:57.663Z,62.00
2017-12-29T03:12:02.505Z,62.00
2017-12-29T03:13:07.215Z,62.00
2017-12-29T03:14:12.029Z,62.00
2017-12-29T03:15:16.737Z,62.00
2017-12-29T03:16:21.499Z,62.00
2017-12-29T03:17:26.452Z,62.00
2017-12-29T03:18:31.225Z,62.00
2017-12-29T03:19:36.003Z,62.70
2017-12-29T03:20:40.901Z,62.00
2017-12-29T03:21:45.624Z,62.00
2017-12-29T03:22:50.504Z,61.90
2017-12-29T03:23:55.382Z,61.90
2017-12-29T03:25:00.148Z,61.90
2017-12-29T03:26:04.967Z,62.00
2017-12-29T03:27:09.754Z,61.90
2017-12-29T03:28:14.718Z,61.90
2017-12-29T03:29:19.418Z,62.00
2017-12-29T03:30:24.271Z,61.90
2017-12-29T03:31:29.106Z,61.90
2017-12-29T03:32:33.804Z,61.90
2017-12-29T03:33:38.538Z,61.90
2017-12-29T03:34:43.458Z,61.90
2017-12-29T03:35:48.480Z,61.90
2017-12-29T03:36:53.245Z,62.00
2017-12-29T03:37:58.157Z,61.90
2017-12-29T03:39:03.058Z,61.90
2017-12-29T03:40:07.986Z,61.90
2017-12-29T03:41:12.900Z,61.90
2017-12-29T03:42:17.624Z,62.00
2017-12-29T03:43:22.525Z,61.90
2017-12-29T03:44:27.329Z,62.00
2017-12-29T03:45:32.052Z,62.00
2017-12-29T03:46:36.783Z,61.90
2017-12-29T03:47:41.532Z,61.90
2017-12-29T03:48:46.498Z,62.00
2017-12-29T03:49:51.353Z,62.00
2017-12-29T03:50:56.123Z,62.00
2017-12-29T03:52:00.888Z,62.00
2017-12-29T03:53:05.719Z,62.00
2017-12-29T03:54:10.765Z,62.00
2017-12-29T03:55:15.577Z,62.00
2017-12-29T03:56:20.339Z,62.00
2017-12-29T03:57:25.057Z,62.00
2017-12-29T03:58:29.905Z,62.00
2017-12-29T03:59:34.703Z,62.00
2017-12-29T04:00:39.491Z,62.10
2017-12-29T04:01:44.395Z,62.10
2017-12-29T04:02:49.242Z,62.10
2017-12-29T04:03:54.053Z,62.00
2017-12-29T04:04:58.750Z,61.90
2017-12-29T04:06:03.531Z,62.00
2017-12-29T04:07:08.399Z,62.00
2017-12-29T04:08:13.196Z,61.90
2017-12-29T04:09:18.035Z,61.90
2017-12-29T04:10:22.880Z,61.90
2017-12-29T04:11:27.849Z,61.80
2017-12-29T04:12:32.698Z,61.90
2017-12-29T04:13:37.520Z,61.90
2017-12-29T04:14:42.293Z,61.80
2017-12-29T04:15:47.108Z,61.90
2017-12-29T04:16:51.984Z,61.90
2017-12-29T04:17:56.888Z,61.90
2017-12-29T04:19:01.666Z,61.90
2017-12-29T04:20:06.556Z,61.90
2017-12-29T04:21:11.345Z,61.80
2017-12-29T04:22:16.283Z,61.90
2017-12-29T04:23:21.178Z,61.90
2017-12-29T04:24:26.075Z,61.90
2017-12-29T04:25:30.888Z,61.90
2017-12-29T04:26:35.633Z,61.90
2017-12-29T04:27:40.486Z,61.90
2017-12-29T04:28:45.346Z,61.90
2017-12-29T04:29:50.043Z,61.90
2017-12-29T04:30:54.848Z,61.90
2017-12-29T04:31:59.616Z,61.90
2017-12-29T04:33:04.327Z,61.90
2017-12-29T04:34:09.259Z,61.90
2017-12-29T04:35:14.130Z,61.90
2017-12-29T04:36:18.863Z,61.90
2017-12-29T04:37:23.608Z,61.90
2017-12-29T04:38:28.533Z,62.00
2017-12-29T04:39:33.218Z,61.90
2017-12-29T04:40:37.947Z,61.90
2017-12-29T04:41:42.736Z,61.90
2017-12-29T04:42:47.579Z,61.90
2017-12-29T04:43:52.319Z,61.90
2017-12-29T04:44:57.091Z,61.90
2017-12-29T04:46:01.843Z,61.90
2017-12-29T04:47:06.511Z,61.90
2017-12-29T04:48:11.265Z,61.90
2017-12-29T04:49:16.009Z,61.90
2017-12-29T04:50:20.712Z,61.90
2017-12-29T04:51:25.456Z,61.80
2017-12-29T04:52:30.174Z,61.80
2017-12-29T04:53:34.836Z,61.80
2017-12-29T04:54:39.734Z,61.80
2017-12-29T04:55:44.535Z,61.70
2017-12-29T04:56:49.263Z,61.70
2017-12-29T04:57:54.059Z,61.80
2017-12-29T04:58:58.881Z,61.80
2017-12-29T05:00:03.620Z,61.80
2017-12-29T05:01:08.412Z,61.80
2017-12-29T05:02:13.127Z,61.60
2017-12-29T05:03:17.902Z,61.60
2017-12-29T05:04:22.694Z,61.70
2017-12-29T05:05:27.500Z,61.70
2017-12-29T05:06:32.379Z,61.60
2017-12-29T05:07:37.285Z,61.50
2017-12-29T05:08:42.134Z,61.60
2017-12-29T05:09:47.028Z,61.60
2017-12-29T05:10:52.520Z,61.50
2017-12-29T05:11:57.412Z,61.60
2017-12-29T05:13:02.262Z,61.50
2017-12-29T05:14:07.185Z,61.50
2017-12-29T05:15:12.034Z,61.50
2017-12-29T05:16:16.873Z,61.50
2017-12-29T05:17:21.912Z,61.60
2017-12-29T05:18:26.593Z,61.50
2017-12-29T05:19:31.523Z,61.50
2017-12-29T05:20:36.483Z,61.50
2017-12-29T05:21:41.382Z,61.50
2017-12-29T05:22:46.229Z,61.50
2017-12-29T05:23:51.150Z,61.50
2017-12-29T05:24:56.078Z,61.50
2017-12-29T05:26:01.140Z,61.50
2017-12-29T05:27:05.933Z,61.50
2017-12-29T05:28:10.786Z,61.60
2017-12-29T05:29:16.809Z,61.50
2017-12-29T05:30:21.725Z,61.50
2017-12-29T05:31:26.420Z,61.50
2017-12-29T05:32:31.232Z,61.50
2017-12-29T05:33:35.993Z,61.50
2017-12-29T05:34:40.777Z,61.50
2017-12-29T05:35:45.632Z,61.50
2017-12-29T05:36:50.458Z,61.50
2017-12-29T05:37:55.153Z,61.50
2017-12-29T05:39:00.208Z,61.50
2017-12-29T05:40:05.071Z,61.50
2017-12-29T05:41:09.820Z,61.50
2017-12-29T05:42:14.604Z,61.50
2017-12-29T05:43:19.353Z,61.50
2017-12-29T05:44:24.344Z,61.50
2017-12-29T05:45:29.118Z,61.50
2017-12-29T05:46:33.854Z,61.50
2017-12-29T05:47:39.654Z,61.50
2017-12-29T05:48:44.436Z,61.50
2017-12-29T05:49:49.161Z,61.50
2017-12-29T05:50:53.877Z,61.50
2017-12-29T05:51:58.789Z,61.50
2017-12-29T05:53:03.564Z,61.50
2017-12-29T05:54:08.456Z,61.50
2017-12-29T05:55:13.304Z,61.60
2017-12-29T05:56:17.992Z,61.70
2017-12-29T05:57:22.842Z,61.70
2017-12-29T05:58:27.661Z,61.70
2017-12-29T05:59:32.467Z,61.70
2017-12-29T06:00:37.216Z,61.60
2017-12-29T06:01:42.122Z,61.60
2017-12-29T06:02:46.881Z,61.70
2017-12-29T06:03:51.629Z,61.70
2017-12-29T06:04:56.346Z,61.70
2017-12-29T06:06:01.656Z,61.60
2017-12-29T06:07:06.757Z,61.60
2017-12-29T06:08:11.489Z,61.70
2017-12-29T06:09:16.430Z,61.50
2017-12-29T06:10:21.295Z,61.60
2017-12-29T06:11:26.085Z,61.60
2017-12-29T06:12:30.930Z,61.60
2017-12-29T06:13:35.784Z,61.60
2017-12-29T06:14:40.588Z,61.60
2017-12-29T06:15:45.362Z,61.60
2017-12-29T06:16:50.248Z,61.50
2017-12-29T06:17:55.163Z,61.70
2017-12-29T06:18:59.999Z,61.50
2017-12-29T06:20:05.026Z,61.50
2017-12-29T06:21:09.821Z,61.50
2017-12-29T06:22:14.722Z,61.50
2017-12-29T06:23:19.495Z,61.50
2017-12-29T06:24:24.420Z,61.40
2017-12-29T06:25:29.660Z,61.40
2017-12-29T06:26:34.466Z,61.50
2017-12-29T06:27:39.354Z,61.50
2017-12-29T06:28:44.280Z,61.40
2017-12-29T06:29:49.034Z,61.50
2017-12-29T06:30:53.726Z,61.50
2017-12-29T06:31:58.568Z,61.50
2017-12-29T06:33:03.393Z,61.50
2017-12-29T06:34:08.372Z,61.50
2017-12-29T06:35:13.236Z,61.50
2017-12-29T06:36:18.056Z,61.50
2017-12-29T06:37:22.938Z,61.50
2017-12-29T06:38:27.780Z,61.50
2017-12-29T06:39:32.686Z,61.40
2017-12-29T06:40:37.536Z,61.40
2017-12-29T06:41:42.484Z,61.40
2017-12-29T06:42:47.288Z,61.40
2017-12-29T06:43:52.199Z,61.40
2017-12-29T06:44:57.147Z,61.40
2017-12-29T06:46:02.127Z,61.30
2017-12-29T06:47:06.981Z,61.20
2017-12-29T06:48:11.850Z,61.30
2017-12-29T06:49:16.718Z,61.40
2017-12-29T06:50:21.729Z,61.40
2017-12-29T06:51:26.641Z,61.50
2017-12-29T06:52:31.785Z,61.40
2017-12-29T06:53:36.575Z,61.40
2017-12-29T06:54:41.447Z,61.40
2017-12-29T06:55:46.285Z,61.40
2017-12-29T06:56:51.029Z,61.40
2017-12-29T06:57:55.839Z,61.20
2017-12-29T06:59:00.586Z,61.30
2017-12-29T07:00:05.456Z,61.40
2017-12-29T07:01:10.254Z,61.40
2017-12-29T07:02:15.163Z,61.50
2017-12-29T07:03:19.990Z,61.50
2017-12-29T07:04:24.787Z,61.50
2017-12-29T07:05:29.658Z,61.40
2017-12-29T07:06:34.613Z,61.50
2017-12-29T07:07:39.521Z,62.10
2017-12-29T07:08:44.446Z,61.50
2017-12-29T07:09:49.192Z,61.50
2017-12-29T07:10:54.021Z,61.40
2017-12-29T07:11:58.838Z,61.40
2017-12-29T07:13:03.638Z,61.40
2017-12-29T07:14:08.573Z,61.30
2017-12-29T07:15:13.313Z,61.40
2017-12-29T07:16:18.017Z,61.50
2017-12-29T07:17:22.895Z,61.40
2017-12-29T07:18:27.735Z,61.50
2017-12-29T07:19:32.578Z,61.30
2017-12-29T07:20:37.358Z,61.20
2017-12-29T07:21:42.175Z,61.00
2017-12-29T07:22:47.211Z,60.90
2017-12-29T07:23:51.960Z,60.80
2017-12-29T07:24:56.900Z,60.70
2017-12-29T07:26:01.598Z,60.70
2017-12-29T07:27:06.536Z,60.60
2017-12-29T07:28:11.284Z,60.50
2017-12-29T07:29:16.236Z,60.40
2017-12-29T07:30:21.115Z,60.40
2017-12-29T07:31:25.858Z,60.30
2017-12-29T07:32:30.883Z,60.20
2017-12-29T07:33:35.807Z,60.20
2017-12-29T07:34:40.801Z,60.10
2017-12-29T07:35:45.826Z,60.10
2017-12-29T07:36:50.852Z,60.10
2017-12-29T07:37:55.818Z,60.00
2017-12-29T07:39:00.667Z,60.20
2017-12-29T07:40:05.393Z,59.90
2017-12-29T07:41:10.378Z,59.80
2017-12-29T07:42:15.227Z,59.80
2017-12-29T07:43:20.386Z,59.80
2017-12-29T07:44:25.356Z,60.00
2017-12-29T07:45:30.169Z,59.90
2017-12-29T07:46:35.148Z,60.00
2017-12-29T07:47:40.218Z,60.10
2017-12-29T07:48:45.908Z,60.10
2017-12-29T07:49:50.966Z,60.30
2017-12-29T07:50:55.934Z,60.30
2017-12-29T07:52:00.758Z,60.20
2017-12-29T07:53:05.883Z,60.20
2017-12-29T07:54:11.008Z,60.10
2017-12-29T07:55:15.930Z,60.10
2017-12-29T07:56:20.692Z,60.10
2017-12-29T07:57:25.635Z,60.00
2017-12-29T07:58:30.575Z,60.00
2017-12-29T07:59:35.501Z,60.00
2017-12-29T08:00:40.367Z,60.00
2017-12-29T08:01:45.353Z,59.90
2017-12-29T08:02:50.113Z,59.80
2017-12-29T08:03:54.949Z,59.80
2017-12-29T08:04:59.792Z,59.60
2017-12-29T08:06:04.660Z,59.60
2017-12-29T08:07:09.539Z,59.50
2017-12-29T08:08:14.374Z,59.50
2017-12-29T08:09:19.087Z,59.40
2017-12-29T08:10:23.986Z,59.20
2017-12-29T08:11:28.774Z,59.20
2017-12-29T08:12:33.668Z,59.10
2017-12-29T08:13:38.573Z,58.90
2017-12-29T08:14:43.462Z,59.30
2017-12-29T08:15:48.303Z,59.20
2017-12-29T08:16:53.136Z,59.20
2017-12-29T08:17:58.181Z,59.30
2017-12-29T08:19:03.120Z,59.20
2017-12-29T08:20:08.063Z,59.30
2017-12-29T08:21:13.017Z,59.40
2017-12-29T08:22:21.522Z,59.40
2017-12-29T08:23:27.214Z,59.50
2017-12-29T08:24:32.136Z,59.60
2017-12-29T08:25:37.098Z,59.60
2017-12-29T08:26:42.044Z,59.40
2017-12-29T08:27:47.052Z,59.40
2017-12-29T08:28:51.953Z,59.30
2017-12-29T08:29:56.985Z,59.20
2017-12-29T08:31:02.039Z,59.20
2017-12-29T08:32:06.911Z,59.10
2017-12-29T08:33:11.668Z,59.00
2017-12-29T08:34:16.847Z,59.00
2017-12-29T08:35:21.781Z,59.00
2017-12-29T08:36:27.481Z,59.00
2017-12-29T08:37:32.404Z,58.90
2017-12-29T08:38:37.295Z,59.00
2017-12-29T08:39:42.229Z,59.00
2017-12-29T08:40:47.190Z,59.00
2017-12-29T08:41:52.119Z,58.20
2017-12-29T08:42:56.961Z,56.80
2017-12-29T08:44:01.912Z,56.10
2017-12-29T08:45:06.922Z,55.20
2017-12-29T08:46:11.836Z,54.60
2017-12-29T08:47:16.650Z,54.90
2017-12-29T08:48:21.726Z,53.90
2017-12-29T08:49:26.611Z,53.80
2017-12-29T08:50:31.565Z,53.60
2017-12-29T08:51:36.393Z,53.70
2017-12-29T08:52:42.044Z,53.50
2017-12-29T08:53:46.958Z,53.60
2017-12-29T08:54:51.748Z,53.70
2017-12-29T08:55:56.588Z,53.80
2017-12-29T08:57:01.404Z,54.00
2017-12-29T08:58:06.231Z,54.30
2017-12-29T08:59:11.219Z,54.40
2017-12-29T09:00:16.258Z,54.50
2017-12-29T09:01:21.235Z,55.30
2017-12-29T09:02:26.220Z,54.60
2017-12-29T09:03:31.057Z,54.70
2017-12-29T09:04:37.106Z,54.70
2017-12-29T09:05:41.933Z,54.70
2017-12-29T09:06:46.786Z,54.80
2017-12-29T09:07:51.767Z,54.90
2017-12-29T09:08:56.647Z,55.00
2017-12-29T09:10:01.899Z,55.10
2017-12-29T09:11:06.748Z,55.10
2017-12-29T09:12:11.552Z,55.20
2017-12-29T09:13:16.355Z,55.10
2017-12-29T09:14:21.072Z,55.10
2017-12-29T09:15:26.027Z,55.20
2017-12-29T09:16:30.843Z,55.20
2017-12-29T09:17:35.768Z,55.20
2017-12-29T09:18:40.574Z,55.10
2017-12-29T09:19:45.362Z,55.10
2017-12-29T09:20:50.171Z,55.20
2017-12-29T09:21:55.086Z,55.20
2017-12-29T09:22:59.872Z,55.30
2017-12-29T09:24:04.644Z,55.20
2017-12-29T09:25:09.552Z,55.30
2017-12-29T09:26:14.458Z,55.30
2017-12-29T09:27:19.240Z,55.40
2017-12-29T09:28:24.041Z,55.40
2017-12-29T09:29:29.043Z,55.40
2017-12-29T09:30:33.958Z,55.50
2017-12-29T09:31:38.790Z,55.50
2017-12-29T09:32:43.652Z,55.50
2017-12-29T09:33:48.466Z,55.60
2017-12-29T09:34:53.218Z,55.60
2017-12-29T09:35:57.943Z,55.60
2017-12-29T09:37:02.897Z,55.60
2017-12-29T09:38:07.708Z,55.60
2017-12-29T09:39:12.507Z,55.70
2017-12-29T09:40:17.288Z,55.70
2017-12-29T09:41:22.205Z,55.80
2017-12-29T09:42:26.982Z,56.00
2017-12-29T09:43:31.728Z,56.00
2017-12-29T09:44:36.689Z,56.00
2017-12-29T09:45:41.438Z,56.00
2017-12-29T09:46:46.332Z,56.10
2017-12-29T09:47:51.086Z,56.10
2017-12-29T09:48:55.781Z,56.10
2017-12-29T09:50:00.792Z,56.20
2017-12-29T09:51:05.700Z,56.20
2017-12-29T09:52:10.480Z,56.20
2017-12-29T09:53:15.222Z,56.20
2017-12-29T09:54:20.068Z,56.20
2017-12-29T09:55:24.891Z,56.20
2017-12-29T09:56:29.672Z,56.30
2017-12-29T09:57:34.453Z,56.30
2017-12-29T09:58:39.344Z,56.50
2017-12-29T09:59:44.260Z,56.50
2017-12-29T10:00:49.142Z,56.40
2017-12-29T10:01:54.121Z,56.60
2017-12-29T10:02:59.101Z,56.60
2017-12-29T10:04:03.890Z,56.60
2017-12-29T10:05:08.681Z,56.60
2017-12-29T10:06:13.549Z,56.60
2017-12-29T10:07:18.464Z,56.60
2017-12-29T10:08:23.347Z,56.70
2017-12-29T10:09:28.233Z,56.70
2017-12-29T10:10:33.071Z,56.70
2017-12-29T10:11:37.906Z,57.40
2017-12-29T10:12:42.712Z,56.90
2017-12-29T10:13:47.450Z,57.00
2017-12-29T10:14:52.358Z,57.10
2017-12-29T10:15:57.153Z,57.30
2017-12-29T10:17:01.958Z,57.40
2017-12-29T10:18:06.925Z,57.60
2017-12-29T10:19:11.848Z,57.70
2017-12-29T10:20:16.861Z,57.80
2017-12-29T10:21:21.797Z,57.90
2017-12-29T10:22:26.755Z,57.90
2017-12-29T10:23:31.638Z,57.90
2017-12-29T10:24:36.547Z,58.00
2017-12-29T10:25:41.415Z,58.10
2017-12-29T10:26:46.255Z,58.10
2017-12-29T10:27:51.078Z,58.20
2017-12-29T10:28:56.030Z,58.20
2017-12-29T10:30:00.806Z,58.30
2017-12-29T10:31:05.923Z,58.30
2017-12-29T10:32:10.743Z,58.30
2017-12-29T10:33:15.693Z,58.30
2017-12-29T10:34:20.579Z,58.30
2017-12-29T10:35:25.444Z,58.30
2017-12-29T10:36:30.190Z,58.30
2017-12-29T10:37:35.041Z,58.30
2017-12-29T10:38:39.961Z,58.30
2017-12-29T10:39:44.790Z,58.30
2017-12-29T10:40:49.512Z,58.40
2017-12-29T10:41:54.337Z,58.40
2017-12-29T10:42:59.272Z,58.30
2017-12-29T10:44:04.196Z,58.30
2017-12-29T10:45:08.956Z,58.30
2017-12-29T10:46:13.700Z,58.30
2017-12-29T10:47:18.633Z,58.30
2017-12-29T10:48:23.664Z,58.20
2017-12-29T10:49:28.541Z,58.30
2017-12-29T10:50:33.390Z,58.10
2017-12-29T10:51:38.259Z,58.30
2017-12-29T10:52:43.175Z,58.30
2017-12-29T10:53:48.129Z,58.30
2017-12-29T10:54:53.091Z,58.20
2017-12-29T10:55:57.896Z,58.10
2017-12-29T10:57:02.645Z,58.10
2017-12-29T10:58:07.539Z,58.20
2017-12-29T10:59:12.283Z,58.10
2017-12-29T11:00:17.001Z,58.20
2017-12-29T11:01:21.852Z,58.10
2017-12-29T11:02:26.685Z,58.20
2017-12-29T11:03:31.610Z,58.30
2017-12-29T11:04:36.448Z,58.20
2017-12-29T11:05:41.188Z,58.10
2017-12-29T11:06:46.165Z,58.20
2017-12-29T11:07:50.965Z,58.20
2017-12-29T11:08:55.819Z,58.20
2017-12-29T11:10:00.633Z,58.20
2017-12-29T11:11:05.403Z,58.20
2017-12-29T11:12:10.137Z,58.10
2017-12-29T11:13:15.063Z,58.20
2017-12-29T11:14:20.017Z,58.00
2017-12-29T11:15:24.937Z,58.20
2017-12-29T11:16:29.787Z,58.20
2017-12-29T11:17:34.678Z,58.20
2017-12-29T11:18:39.481Z,58.30
2017-12-29T11:19:44.444Z,58.30
2017-12-29T11:20:49.268Z,58.20
2017-12-29T11:21:54.071Z,58.20
2017-12-29T11:22:58.998Z,58.20
2017-12-29T11:24:03.906Z,58.20
2017-12-29T11:25:08.679Z,58.20
2017-12-29T11:26:13.500Z,58.20
2017-12-29T11:27:18.414Z,58.10
2017-12-29T11:28:23.342Z,58.30
2017-12-29T11:29:28.290Z,58.10
2017-12-29T11:30:33.099Z,58.00
2017-12-29T11:31:37.905Z,58.00
2017-12-29T11:32:42.733Z,58.00
2017-12-29T11:33:47.672Z,57.90
2017-12-29T11:34:52.715Z,57.90
2017-12-29T11:35:57.721Z,58.00
2017-12-29T11:37:02.726Z,57.90
2017-12-29T11:38:07.632Z,58.00
2017-12-29T11:39:12.578Z,58.00
2017-12-29T11:40:17.630Z,57.90
2017-12-29T11:41:22.537Z,57.90
2017-12-29T11:42:27.293Z,57.90
2017-12-29T11:43:32.240Z,57.90
2017-12-29T11:44:37.083Z,58.00
2017-12-29T11:45:41.813Z,57.90
2017-12-29T11:46:46.679Z,58.00
2017-12-29T11:47:51.422Z,58.00
2017-12-29T11:48:56.221Z,58.00
2017-12-29T11:50:01.307Z,57.90
2017-12-29T11:51:06.141Z,57.90
2017-12-29T11:52:10.987Z,57.90
2017-12-29T11:53:15.746Z,57.90
2017-12-29T11:54:20.752Z,57.80
2017-12-29T11:55:25.737Z,57.80
2017-12-29T11:56:30.605Z,57.90
2017-12-29T11:57:35.360Z,57.80
2017-12-29T11:58:40.247Z,57.80
2017-12-29T11:59:45.277Z,57.80
2017-12-29T12:00:50.200Z,57.80
2017-12-29T12:01:54.942Z,57.70
2017-12-29T12:02:59.854Z,57.70
2017-12-29T12:04:04.728Z,57.70
2017-12-29T12:05:09.603Z,57.70
2017-12-29T12:06:14.353Z,57.70
2017-12-29T12:07:19.143Z,57.70
2017-12-29T12:08:23.969Z,57.60
2017-12-29T12:09:28.930Z,57.60
2017-12-29T12:10:33.823Z,57.50
2017-12-29T12:11:38.678Z,57.50
2017-12-29T12:12:43.564Z,57.50
2017-12-29T12:13:48.590Z,57.50
2017-12-29T12:14:53.513Z,57.60
2017-12-29T12:15:58.426Z,57.60
2017-12-29T12:17:03.232Z,57.50
2017-12-29T12:18:08.097Z,57.50
2017-12-29T12:19:13.022Z,57.50
2017-12-29T12:20:17.861Z,57.30
2017-12-29T12:21:22.563Z,57.30
2017-12-29T12:22:27.396Z,57.30
2017-12-29T12:23:32.293Z,57.50
2017-12-29T12:24:37.198Z,57.50
2017-12-29T12:25:41.876Z,57.50
2017-12-29T12:26:46.651Z,57.50
2017-12-29T12:27:51.720Z,57.60
2017-12-29T12:28:56.599Z,57.80
2017-12-29T12:30:01.518Z,58.00
2017-12-29T12:31:06.277Z,58.10
2017-12-29T12:32:11.437Z,58.30
2017-12-29T12:33:16.262Z,58.20
2017-12-29T12:34:21.059Z,58.60
2017-12-29T12:35:25.879Z,58.30
2017-12-29T12:36:30.822Z,58.50
2017-12-29T12:37:35.838Z,58.40
2017-12-29T12:38:40.663Z,58.50
2017-12-29T12:39:45.523Z,58.40
2017-12-29T12:40:50.622Z,58.30
2017-12-29T12:41:55.466Z,58.30
2017-12-29T12:43:00.308Z,58.40
2017-12-29T12:44:05.225Z,58.30
2017-12-29T12:45:10.595Z,58.30
2017-12-29T12:46:16.370Z,58.60
2017-12-29T12:47:21.287Z,58.60
2017-12-29T12:48:26.271Z,58.70
2017-12-29T12:49:31.685Z,58.80
2017-12-29T12:50:36.859Z,58.70
2017-12-29T12:51:41.706Z,58.80
2017-12-29T12:52:46.659Z,58.90
2017-12-29T12:53:51.603Z,58.80
2017-12-29T12:54:56.596Z,59.10
2017-12-29T12:56:01.574Z,59.00
2017-12-29T12:57:06.882Z,59.00
2017-12-29T12:58:11.978Z,58.80
2017-12-29T12:59:17.129Z,58.70
2017-12-29T13:00:22.052Z,58.70
2017-12-29T13:01:26.917Z,58.70
2017-12-29T13:02:31.976Z,58.70
2017-12-29T13:03:36.973Z,58.70
2017-12-29T13:04:41.886Z,58.80
2017-12-29T13:05:46.689Z,58.80
2017-12-29T13:06:51.625Z,58.90
2017-12-29T13:07:57.700Z,58.90
2017-12-29T13:09:02.804Z,59.00
2017-12-29T13:10:07.810Z,59.00
2017-12-29T13:11:12.878Z,59.10
2017-12-29T13:12:17.819Z,59.20
2017-12-29T13:13:22.773Z,59.20
2017-12-29T13:14:27.696Z,59.20
2017-12-29T13:15:32.888Z,59.20
2017-12-29T13:16:37.720Z,59.20
2017-12-29T13:17:42.788Z,59.20
2017-12-29T13:18:47.755Z,59.10
2017-12-29T13:19:52.504Z,59.10
2017-12-29T13:20:57.332Z,59.10
2017-12-29T13:22:02.136Z,59.00
2017-12-29T13:23:07.091Z,59.10
2017-12-29T13:24:11.841Z,59.10
2017-12-29T13:25:16.671Z,59.10
2017-12-29T13:26:21.764Z,59.10
2017-12-29T13:27:26.543Z,59.20
2017-12-29T13:28:31.420Z,59.10
2017-12-29T13:29:36.346Z,59.10
2017-12-29T13:30:41.241Z,59.20
2017-12-29T13:31:46.002Z,59.20
2017-12-29T13:32:50.895Z,59.10
2017-12-29T13:33:55.805Z,59.10
2017-12-29T13:35:00.559Z,59.10
2017-12-29T13:36:05.318Z,59.00
2017-12-29T13:37:10.155Z,59.10
2017-12-29T13:38:14.974Z,59.10
2017-12-29T13:39:19.906Z,59.10
2017-12-29T13:40:24.730Z,59.00
2017-12-29T13:41:29.631Z,59.00
2017-12-29T13:42:34.448Z,59.00
2017-12-29T13:43:39.260Z,59.10
2017-12-29T13:44:44.187Z,59.20
2017-12-29T13:45:48.946Z,59.20
2017-12-29T13:46:53.809Z,59.20
2017-12-29T13:47:58.654Z,59.30
2017-12-29T13:49:03.482Z,60.00
2017-12-29T13:50:08.331Z,59.50
2017-12-29T13:51:13.161Z,59.60
2017-12-29T13:52:18.044Z,59.70
2017-12-29T13:53:22.837Z,59.70
2017-12-29T13:54:27.681Z,59.90
2017-12-29T13:55:32.514Z,59.90